createdAt,value
2023-03-22T00:00:50.928Z,95359
2023-03-22T00:01:53.192Z,95364.4
2023-03-22T00:02:56.005Z,95361.1
2023-03-22T00:03:58.809Z,95351.2
2023-03-22T00:05:01.466Z,95353.6
2023-03-22T00:06:04.001Z,95352.1
2023-03-22T00:07:06.217Z,95359.5
2023-03-22T00:08:08.506Z,95354.5
2023-03-22T00:09:10.741Z,95355.7
2023-03-22T00:10:13.264Z,95355.5
2023-03-22T00:11:15.442Z,95356.5
2023-03-22T00:12:17.675Z,95353.8
2023-03-22T00:13:20.156Z,95351
2023-03-22T00:14:22.375Z,95347.1
2023-03-22T00:15:24.641Z,95348.3
2023-03-22T00:16:27.047Z,95343.5
2023-03-22T00:17:29.069Z,95345.3
2023-03-22T00:18:31.668Z,95344.5
2023-03-22T00:19:33.975Z,95346.2
2023-03-22T00:20:36.593Z,95345
2023-03-22T00:21:39.189Z,95336.4
2023-03-22T00:22:42.486Z,95340.5
2023-03-22T00:23:44.819Z,95330.6
2023-03-22T00:24:46.784Z,95333.9
2023-03-22T00:25:49.271Z,95332.6
2023-03-22T00:26:51.763Z,95322.4
2023-03-22T00:27:53.492Z,95327.1
2023-03-22T00:28:55.756Z,95323.1
2023-03-22T00:29:58.243Z,95322.3
2023-03-22T00:31:01.129Z,95321.4
2023-03-22T00:32:03.710Z,95318.3
2023-03-22T00:33:05.930Z,95322.1
2023-03-22T00:34:08.132Z,95319.3
2023-03-22T00:35:10.631Z,95322.6
2023-03-22T00:36:13.183Z,95325.1
2023-03-22T00:37:15.734Z,95323.3
2023-03-22T00:38:18.248Z,95327.1
2023-03-22T00:39:20.835Z,95327
2023-03-22T00:40:23.381Z,95324.2
2023-03-22T00:41:25.872Z,95323.6
2023-03-22T00:42:28.115Z,95323.3
2023-03-22T00:43:30.330Z,95320.3
2023-03-22T00:44:32.819Z,95322
2023-03-22T00:45:35.315Z,95322.6
2023-03-22T00:46:37.865Z,95319.4
2023-03-22T00:47:40.247Z,95318.6
2023-03-22T00:48:42.555Z,95316.9
2023-03-22T00:49:44.784Z,95316.4
2023-03-22T00:50:46.741Z,95313.1
2023-03-22T00:51:48.967Z,95315.3
2023-03-22T00:52:51.227Z,95311
2023-03-22T00:53:53.749Z,95315.2
2023-03-22T00:54:56.316Z,95312.1
2023-03-22T00:55:58.849Z,95310.7
2023-03-22T00:57:01.319Z,95312.8
2023-03-22T00:58:03.958Z,95314.2
2023-03-22T00:59:06.441Z,95309.9
2023-03-22T01:00:08.965Z,95313.6
2023-03-22T01:01:11.643Z,95311.4
2023-03-22T01:02:14.186Z,95312.5
2023-03-22T01:03:16.620Z,95312.6
2023-03-22T01:04:19.373Z,95311.6
2023-03-22T01:05:21.990Z,95313.7
2023-03-22T01:06:23.983Z,95312
2023-03-22T01:07:26.481Z,95314.7
2023-03-22T01:08:29.032Z,95312
2023-03-22T01:09:31.614Z,95311.9
2023-03-22T01:10:34.269Z,95315.3
2023-03-22T01:11:36.538Z,95311.6
2023-03-22T01:12:39.026Z,95313.1
2023-03-22T01:13:41.030Z,95313.1
2023-03-22T01:14:43.526Z,95314.8
2023-03-22T01:15:46.103Z,95320.4
2023-03-22T01:16:48.783Z,95315.7
2023-03-22T01:17:51.353Z,95316.6
2023-03-22T01:18:54.285Z,95317.8
2023-03-22T01:19:56.793Z,95317.9
2023-03-22T01:20:59.006Z,95317.6
2023-03-22T01:22:01.539Z,95309.7
2023-03-22T01:23:03.832Z,95309.9
2023-03-22T01:24:06.389Z,95310.4
2023-03-22T01:25:08.950Z,95311.2
2023-03-22T01:26:11.250Z,95310.3
2023-03-22T01:27:13.762Z,95313.7
2023-03-22T01:28:16.279Z,95311.3
2023-03-22T01:29:18.781Z,95313.3
2023-03-22T01:30:21.357Z,95305.7
2023-03-22T01:31:24.221Z,95303.2
2023-03-22T01:32:26.725Z,95301
2023-03-22T01:33:29.259Z,95303.2
2023-03-22T01:34:31.768Z,95306.1
2023-03-22T01:35:34.345Z,95301.8
2023-03-22T01:36:36.738Z,95299.7
2023-03-22T01:37:39.016Z,95297.1
2023-03-22T01:38:41.324Z,95292.5
2023-03-22T01:39:43.361Z,95293
2023-03-22T01:40:45.937Z,95292.6
2023-03-22T01:41:48.250Z,95290.9
2023-03-22T01:42:50.889Z,95288.7
2023-03-22T01:43:53.386Z,95290.3
2023-03-22T01:44:58.629Z,95286.2
2023-03-22T01:46:01.416Z,95283.7
2023-03-22T01:47:03.770Z,95287.2
2023-03-22T01:48:06.655Z,95285.1
2023-03-22T01:49:08.898Z,95288.5
2023-03-22T01:50:11.274Z,95292.2
2023-03-22T01:51:13.503Z,95293.3
2023-03-22T01:52:15.749Z,95293.8
2023-03-22T01:53:18.248Z,95292
2023-03-22T01:54:20.760Z,95291.5
2023-03-22T01:55:23.389Z,95292.4
2023-03-22T01:56:25.922Z,95288.6
2023-03-22T01:57:28.490Z,95287.4
2023-03-22T01:58:30.762Z,95288.9
2023-03-22T01:59:33.264Z,95287.2
2023-03-22T02:00:35.498Z,95289.3
2023-03-22T02:01:38.195Z,95285.6
2023-03-22T02:02:40.813Z,95285.1
2023-03-22T02:03:42.925Z,95287
2023-03-22T02:04:45.424Z,95287.2
2023-03-22T02:05:47.912Z,95286.2
2023-03-22T02:06:50.405Z,95290.3
2023-03-22T02:07:52.628Z,95287.9
2023-03-22T02:08:54.838Z,95283.4
2023-03-22T02:09:57.346Z,95285
2023-03-22T02:10:59.849Z,95286.9
2023-03-22T02:12:02.054Z,95288.7
2023-03-22T02:13:04.641Z,95291
2023-03-22T02:14:06.610Z,95287.4
2023-03-22T02:15:08.597Z,95283.5
2023-03-22T02:16:11.041Z,95287.5
2023-03-22T02:17:13.395Z,95288
2023-03-22T02:18:15.876Z,95288.4
2023-03-22T02:19:18.465Z,95286.2
2023-03-22T02:20:20.982Z,95287.2
2023-03-22T02:21:23.486Z,95286.5
2023-03-22T02:22:25.989Z,95282.5
2023-03-22T02:23:27.958Z,95284.4
2023-03-22T02:24:30.464Z,95271.5
2023-03-22T02:25:32.974Z,95280.5
2023-03-22T02:26:35.621Z,95274.1
2023-03-22T02:27:38.209Z,95277
2023-03-22T02:28:40.533Z,95270.9
2023-03-22T02:29:43.756Z,95268.5
2023-03-22T02:30:46.274Z,95271
2023-03-22T02:31:48.784Z,95262.1
2023-03-22T02:32:50.709Z,95264.3
2023-03-22T02:33:53.204Z,95267.1
2023-03-22T02:34:55.138Z,95263.8
2023-03-22T02:35:57.822Z,95258.9
2023-03-22T02:37:00.439Z,95267.7
2023-03-22T02:38:02.810Z,95261.2
2023-03-22T02:39:05.669Z,95263.8
2023-03-22T02:40:08.179Z,95263.4
2023-03-22T02:41:10.181Z,95262.5
2023-03-22T02:42:12.146Z,95261.8
2023-03-22T02:43:14.658Z,95265.9
2023-03-22T02:44:16.969Z,95265.4
2023-03-22T02:45:19.013Z,95265.4
2023-03-22T02:46:21.674Z,95262.7
2023-03-22T02:47:24.025Z,95264.6
2023-03-22T02:48:26.825Z,95262.5
2023-03-22T02:49:29.412Z,95257.6
2023-03-22T02:50:31.928Z,95265.3
2023-03-22T02:51:34.455Z,95265.8
2023-03-22T02:52:36.677Z,95268
2023-03-22T02:53:38.906Z,95269.6
2023-03-22T02:55:48.137Z,95275.8
2023-03-22T02:56:50.406Z,95281.3
2023-03-22T02:57:53.290Z,95282.5
2023-03-22T02:58:55.501Z,95280.7
2023-03-22T02:59:58.136Z,95279.9
2023-03-22T03:01:00.919Z,95282.1
2023-03-22T03:02:03.744Z,95279.5
2023-03-22T03:03:06.105Z,95280.8
2023-03-22T03:04:08.069Z,95282.9
2023-03-22T03:05:10.544Z,95284.1
2023-03-22T03:06:13.043Z,95281.2
2023-03-22T03:07:15.273Z,95282.9
2023-03-22T03:08:17.993Z,95282.9
2023-03-22T03:09:20.217Z,95278.2
2023-03-22T03:10:22.455Z,95279.5
2023-03-22T03:11:24.383Z,95281.6
2023-03-22T03:12:26.949Z,95281.6
2023-03-22T03:13:29.194Z,95279.9
2023-03-22T03:14:31.137Z,95281.2
2023-03-22T03:15:33.425Z,95282.6
2023-03-22T03:16:36.420Z,95281.5
2023-03-22T03:17:38.705Z,95283.3
2023-03-22T03:18:41.224Z,95283.3
2023-03-22T03:19:43.417Z,95282.9
2023-03-22T03:20:45.947Z,95282.1
2023-03-22T03:21:48.459Z,95283.7
2023-03-22T03:22:50.418Z,95288.3
2023-03-22T03:23:52.641Z,95288.8
2023-03-22T03:24:55.170Z,95292.8
2023-03-22T03:25:56.840Z,95292.2
2023-03-22T03:26:58.537Z,95294.1
2023-03-22T03:28:00.745Z,95292.3
2023-03-22T03:29:03.287Z,95292.2
2023-03-22T03:30:05.530Z,95294.7
2023-03-22T03:31:07.857Z,95291.5
2023-03-22T03:32:10.135Z,95294.4
2023-03-22T03:33:12.342Z,95293.4
2023-03-22T03:34:14.853Z,95286.8
2023-03-22T03:35:16.784Z,95288.1
2023-03-22T03:36:19.112Z,95286.3
2023-03-22T03:37:21.641Z,95283.9
2023-03-22T03:38:24.113Z,95287.9
2023-03-22T03:39:26.027Z,95294
2023-03-22T03:40:28.572Z,95286.9
2023-03-22T03:41:31.079Z,95293.8
2023-03-22T03:42:33.294Z,95292.5
2023-03-22T03:43:35.500Z,95289
2023-03-22T03:44:37.737Z,95292.5
2023-03-22T03:45:40.033Z,95293.4
2023-03-22T03:46:42.667Z,95288.2
2023-03-22T03:47:45.375Z,95292
2023-03-22T03:48:47.934Z,95292.8
2023-03-22T03:49:50.139Z,95288
2023-03-22T03:50:52.382Z,95289.4
2023-03-22T03:51:54.342Z,95287.6
2023-03-22T03:52:56.861Z,95286.8
2023-03-22T03:53:59.357Z,95291.6
2023-03-22T03:55:01.380Z,95289.2
2023-03-22T03:56:03.639Z,95287.3
2023-03-22T03:57:05.863Z,95285.3
2023-03-22T03:58:08.130Z,95287.8
2023-03-22T03:59:10.369Z,95288.9
2023-03-22T04:00:12.888Z,95279.8
2023-03-22T04:01:15.286Z,95281.4
2023-03-22T04:02:17.922Z,95277.1
2023-03-22T04:03:20.261Z,95278.9
2023-03-22T04:04:23.067Z,95280.6
2023-03-22T04:05:25.627Z,95277.5
2023-03-22T04:06:28.124Z,95278
2023-03-22T04:07:30.409Z,95276.4
2023-03-22T04:08:33.015Z,95276.6
2023-03-22T04:09:35.547Z,95279.7
2023-03-22T04:10:39.088Z,95273
2023-03-22T04:11:41.827Z,95277.5
2023-03-22T04:12:44.551Z,95274.4
2023-03-22T04:13:46.872Z,95276.6
2023-03-22T04:14:49.399Z,95281.9
2023-03-22T04:15:51.935Z,95280
2023-03-22T04:16:54.785Z,95276.7
2023-03-22T04:17:57.527Z,95279.5
2023-03-22T04:18:59.771Z,95279.7
2023-03-22T04:20:03.211Z,95282.6
2023-03-22T04:21:08.514Z,95282.9
2023-03-22T04:22:10.991Z,95280.6
2023-03-22T04:23:12.981Z,95289.1
2023-03-22T04:24:14.909Z,95285.3
2023-03-22T04:25:17.100Z,95286.3
2023-03-22T04:26:19.634Z,95289.4
2023-03-22T04:27:21.627Z,95286.6
2023-03-22T04:28:23.597Z,95289.3
2023-03-22T04:29:26.147Z,95285
2023-03-22T04:30:28.625Z,95280.5
2023-03-22T04:31:31.124Z,95283.7
2023-03-22T04:32:33.458Z,95281.1
2023-03-22T04:33:35.754Z,95281.9
2023-03-22T04:34:38.049Z,95278
2023-03-22T04:35:40.720Z,95274.3
2023-03-22T04:36:42.979Z,95276.4
2023-03-22T04:37:45.511Z,95274.3
2023-03-22T04:38:48.023Z,95277.2
2023-03-22T04:39:50.923Z,95276.2
2023-03-22T04:40:53.591Z,95271.9
2023-03-22T04:41:56.111Z,95272.6
2023-03-22T04:42:58.666Z,95277.7
2023-03-22T04:44:01.191Z,95272
2023-03-22T04:45:03.756Z,95271.5
2023-03-22T04:46:06.624Z,95271.4
2023-03-22T04:47:08.637Z,95266.5
2023-03-22T04:48:11.440Z,95267.8
2023-03-22T04:49:13.880Z,95268.4
2023-03-22T04:50:16.525Z,95266.1
2023-03-22T04:51:19.095Z,95270.3
2023-03-22T04:52:21.595Z,95266.4
2023-03-22T04:53:24.104Z,95271.5
2023-03-22T04:54:26.056Z,95269.8
2023-03-22T04:55:28.664Z,95274.3
2023-03-22T04:56:31.156Z,95279.3
2023-03-22T04:57:33.665Z,95274.3
2023-03-22T04:58:35.892Z,95271.2
2023-03-22T04:59:38.125Z,95272.1
2023-03-22T05:00:42.122Z,95273.5
2023-03-22T05:01:44.508Z,95268.8
2023-03-22T05:02:47.045Z,95277.6
2023-03-22T05:03:49.421Z,95273.4
2023-03-22T05:04:52.010Z,95279.3
2023-03-22T05:05:54.300Z,95277.2
2023-03-22T05:06:55.977Z,95280.3
2023-03-22T05:07:58.518Z,95276.5
2023-03-22T05:09:01.018Z,95277.4
2023-03-22T05:10:03.512Z,95277.2
2023-03-22T05:11:06.012Z,95275.4
2023-03-22T05:12:08.526Z,95271.5
2023-03-22T05:13:10.763Z,95273.2
2023-03-22T05:14:13.522Z,95266.4
2023-03-22T05:15:15.772Z,95270.7
2023-03-22T05:16:18.052Z,95270.3
2023-03-22T05:17:20.641Z,95270.3
2023-03-22T05:18:23.300Z,95274.1
2023-03-22T05:19:25.871Z,95276.6
2023-03-22T05:20:28.473Z,95275.8
2023-03-22T05:21:30.983Z,95275.9
2023-03-22T05:22:33.510Z,95275.8
2023-03-22T05:23:35.995Z,95279.1
2023-03-22T05:24:38.516Z,95281.3
2023-03-22T05:25:40.726Z,95281.9
2023-03-22T05:26:43.005Z,95280.6
2023-03-22T05:27:45.508Z,95281.9
2023-03-22T05:28:47.435Z,95276.4
2023-03-22T05:29:49.915Z,95280.3
2023-03-22T05:30:53.128Z,95282.3
2023-03-22T05:32:00.841Z,95287.6
2023-03-22T05:33:03.414Z,95285.6
2023-03-22T05:34:06.013Z,95281.6
2023-03-22T05:35:08.268Z,95283.2
2023-03-22T05:36:10.558Z,95279.1
2023-03-22T05:37:12.824Z,95280
2023-03-22T05:38:15.324Z,95281.8
2023-03-22T05:39:17.619Z,95283.8
2023-03-22T05:40:20.162Z,95284
2023-03-22T05:41:22.671Z,95286.6
2023-03-22T05:42:24.907Z,95286
2023-03-22T05:43:27.154Z,95286
2023-03-22T05:44:29.345Z,95286.3
2023-03-22T05:45:31.584Z,95286.1
2023-03-22T05:46:34.470Z,95288.2
2023-03-22T05:47:36.750Z,95284.8
2023-03-22T05:48:39.259Z,95286.8
2023-03-22T05:49:41.226Z,95285.1
2023-03-22T05:50:43.750Z,95281
2023-03-22T05:51:46.083Z,95279.3
2023-03-22T05:52:48.086Z,95280.8
2023-03-22T05:53:50.339Z,95281.6
2023-03-22T05:54:52.878Z,95280.6
2023-03-22T05:55:55.066Z,95280.1
2023-03-22T05:56:57.306Z,95282.9
2023-03-22T05:57:59.816Z,95285
2023-03-22T05:59:02.066Z,95280.5
2023-03-22T06:00:04.572Z,95285.6
2023-03-22T06:01:07.155Z,95284.6
2023-03-22T06:02:10.015Z,95282.4
2023-03-22T06:03:14.640Z,95280.9
2023-03-22T06:04:19.470Z,95281.6
2023-03-22T06:05:21.718Z,95279.7
2023-03-22T06:06:24.304Z,95279.8
2023-03-22T06:07:26.650Z,95282.2
2023-03-22T06:08:29.191Z,95281.6
2023-03-22T06:09:31.715Z,95283.1
2023-03-22T06:10:33.949Z,95284.7
2023-03-22T06:11:36.448Z,95281.4
2023-03-22T06:12:38.996Z,95282.2
2023-03-22T06:13:41.533Z,95279.3
2023-03-22T06:14:43.753Z,95284.4
2023-03-22T06:15:46.246Z,95283.2
2023-03-22T06:16:48.537Z,95286.9
2023-03-22T06:17:50.892Z,95285.7
2023-03-22T06:18:53.399Z,95283.6
2023-03-22T06:19:55.975Z,95282.2
2023-03-22T06:20:58.648Z,95283.3
2023-03-22T06:22:01.131Z,95282.2
2023-03-22T06:23:03.489Z,95283.7
2023-03-22T06:24:06.036Z,95283.2
2023-03-22T06:25:08.274Z,95283.6
2023-03-22T06:26:10.806Z,95287.2
2023-03-22T06:27:13.026Z,95284.8
2023-03-22T06:28:15.543Z,95279.2
2023-03-22T06:29:17.783Z,95282.6
2023-03-22T06:30:20.279Z,95274.3
2023-03-22T06:31:22.913Z,95282.4
2023-03-22T06:32:25.416Z,95278.5
2023-03-22T06:33:27.657Z,95281.6
2023-03-22T06:34:30.159Z,95278.2
2023-03-22T06:35:32.960Z,95277.5
2023-03-22T06:36:35.652Z,95280
2023-03-22T06:37:38.202Z,95281.2
2023-03-22T06:38:40.782Z,95281.3
2023-03-22T06:39:43.118Z,95282.2
2023-03-22T06:40:45.337Z,95282
2023-03-22T06:41:47.340Z,95283.6
2023-03-22T06:42:49.878Z,95282.1
2023-03-22T06:43:52.427Z,95278.7
2023-03-22T06:44:54.949Z,95280.1
2023-03-22T06:45:57.532Z,95286.4
2023-03-22T06:47:00.121Z,95280.4
2023-03-22T06:48:02.982Z,95280.7
2023-03-22T06:49:05.560Z,95285
2023-03-22T06:50:08.119Z,95283.1
2023-03-22T06:51:10.623Z,95288.9
2023-03-22T06:52:13.175Z,95284.7
2023-03-22T06:53:15.685Z,95285.7
2023-03-22T06:54:17.964Z,95286.2
2023-03-22T06:55:20.535Z,95287.1
2023-03-22T06:56:22.773Z,95289.3
2023-03-22T06:57:25.306Z,95290.4
2023-03-22T06:58:27.543Z,95292
2023-03-22T06:59:29.792Z,95287.3
2023-03-22T07:00:32.621Z,95291.5
2023-03-22T07:01:34.814Z,95293.8
2023-03-22T07:02:37.119Z,95293.6
2023-03-22T07:03:39.350Z,95293.5
2023-03-22T07:04:42.057Z,95293.8
2023-03-22T07:05:44.708Z,95293
2023-03-22T07:06:47.206Z,95295.4
2023-03-22T07:07:49.465Z,95292.8
2023-03-22T07:08:53.491Z,95298
2023-03-22T07:09:56.088Z,95293.8
2023-03-22T07:10:58.646Z,95297.5
2023-03-22T07:12:01.762Z,95297.5
2023-03-22T07:13:04.059Z,95299.6
2023-03-22T07:14:06.605Z,95300.3
2023-03-22T07:15:08.843Z,95302.9
2023-03-22T07:16:11.441Z,95305.6
2023-03-22T07:17:13.518Z,95299.8
2023-03-22T07:18:15.740Z,95305.3
2023-03-22T07:19:17.980Z,95304.8
2023-03-22T07:20:20.280Z,95303.7
2023-03-22T07:21:22.225Z,95305.9
2023-03-22T07:22:24.509Z,95305.5
2023-03-22T07:23:27.077Z,95304.8
2023-03-22T07:24:29.027Z,95304.2
2023-03-22T07:25:31.624Z,95304.6
2023-03-22T07:26:33.613Z,95300
2023-03-22T07:27:35.548Z,95305.3
2023-03-22T07:28:38.000Z,95303.9
2023-03-22T07:29:40.248Z,95306.1
2023-03-22T07:30:43.500Z,95305.2
2023-03-22T07:31:46.305Z,95308.4
2023-03-22T07:32:48.997Z,95305.5
2023-03-22T07:33:51.736Z,95300.3
2023-03-22T07:34:54.324Z,95302.9
2023-03-22T07:35:57.070Z,95298.5
2023-03-22T07:36:59.715Z,95298.6
2023-03-22T07:38:01.951Z,95305.5
2023-03-22T07:39:04.661Z,95303.5
2023-03-22T07:40:06.640Z,95302
2023-03-22T07:41:09.247Z,95301
2023-03-22T07:42:11.810Z,95303.5
2023-03-22T07:43:14.347Z,95305
2023-03-22T07:45:22.121Z,95306.6
2023-03-22T07:46:24.433Z,95310.2
2023-03-22T07:48:32.367Z,95302.1
2023-03-22T07:49:34.698Z,95306.1
2023-03-22T07:50:37.134Z,95307.8
2023-03-22T07:51:40.259Z,95308.4
2023-03-22T07:52:42.815Z,95303
2023-03-22T07:53:45.536Z,95304.5
2023-03-22T07:54:47.853Z,95302.6
2023-03-22T07:55:49.812Z,95304.4
2023-03-22T07:56:52.140Z,95304.8
2023-03-22T07:57:54.721Z,95303.1
2023-03-22T07:58:57.134Z,95306.3
2023-03-22T07:59:59.516Z,95304.5
2023-03-22T08:01:02.151Z,95303.2
2023-03-22T08:02:04.599Z,95305.2
2023-03-22T08:03:07.136Z,95307.8
2023-03-22T08:04:09.435Z,95307.5
2023-03-22T08:05:12.228Z,95307.6
2023-03-22T08:06:14.822Z,95306.7
2023-03-22T08:07:17.107Z,95306
2023-03-22T08:08:19.371Z,95305.3
2023-03-22T08:09:21.926Z,95304.4
2023-03-22T08:10:24.185Z,95303.7
2023-03-22T08:11:27.152Z,95300.5
2023-03-22T08:12:29.787Z,95305.3
2023-03-22T08:13:32.334Z,95297.3
2023-03-22T08:15:41.412Z,95305
2023-03-22T08:16:43.910Z,95302.7
2023-03-22T08:17:45.984Z,95303.5
2023-03-22T08:18:48.204Z,95301.5
2023-03-22T08:19:50.816Z,95298.2
2023-03-22T08:20:53.046Z,95298.9
2023-03-22T08:21:55.270Z,95298.6
2023-03-22T08:22:57.809Z,95297.4
2023-03-22T08:24:00.420Z,95297.6
2023-03-22T08:25:02.937Z,95298.3
2023-03-22T08:26:05.474Z,95295
2023-03-22T08:27:07.656Z,95298.2
2023-03-22T08:28:10.273Z,95290.5
2023-03-22T08:29:12.898Z,95298.3
2023-03-22T08:30:15.453Z,95293.9
2023-03-22T08:31:18.389Z,95294
2023-03-22T08:32:20.522Z,95291.9
2023-03-22T08:33:22.521Z,95293.6
2023-03-22T08:34:24.827Z,95293.1
2023-03-22T08:35:27.220Z,95295.9
2023-03-22T08:36:29.602Z,95293.8
2023-03-22T08:37:31.845Z,95297.5
2023-03-22T08:38:34.354Z,95289.6
2023-03-22T08:39:36.873Z,95292.8
2023-03-22T08:40:39.753Z,95289.1
2023-03-22T08:41:42.084Z,95292.8
2023-03-22T08:42:44.641Z,95290.5
2023-03-22T08:43:46.949Z,95286.2
2023-03-22T08:44:49.535Z,95287.3
2023-03-22T08:45:52.290Z,95290
2023-03-22T08:46:54.386Z,95293.8
2023-03-22T08:47:57.076Z,95289.4
2023-03-22T08:48:59.671Z,95286
2023-03-22T08:50:02.276Z,95286.5
2023-03-22T08:51:04.827Z,95283.4
2023-03-22T08:52:07.076Z,95289.1
2023-03-22T08:53:09.624Z,95287
2023-03-22T08:54:12.119Z,95289.5
2023-03-22T08:55:14.376Z,95284.3
2023-03-22T08:56:16.909Z,95284.8
2023-03-22T08:57:19.444Z,95288.3
2023-03-22T08:58:21.417Z,95281.8
2023-03-22T08:59:24.049Z,95287.8
2023-03-22T09:01:33.587Z,95280.9
2023-03-22T09:02:36.349Z,95286
2023-03-22T09:03:38.813Z,95281.6
2023-03-22T09:04:41.012Z,95283.6
2023-03-22T09:05:43.585Z,95284
2023-03-22T09:06:45.298Z,95284.4
2023-03-22T09:07:47.542Z,95285.6
2023-03-22T09:08:50.052Z,95283.1
2023-03-22T09:09:52.606Z,95281.7
2023-03-22T09:10:55.117Z,95288.3
2023-03-22T09:11:57.355Z,95289.5
2023-03-22T09:12:59.867Z,95281.8
2023-03-22T09:14:02.495Z,95282.3
2023-03-22T09:15:05.093Z,95284.4
2023-03-22T09:16:07.603Z,95276.5
2023-03-22T09:17:09.649Z,95279
2023-03-22T09:18:12.212Z,95284.1
2023-03-22T09:19:14.729Z,95279.7
2023-03-22T09:20:16.443Z,95282.7
2023-03-22T09:21:18.827Z,95274.7
2023-03-22T09:22:21.434Z,95269.9
2023-03-22T09:23:23.418Z,95276.2
2023-03-22T09:24:25.927Z,95269.6
2023-03-22T09:25:27.870Z,95267.6
2023-03-22T09:26:30.438Z,95273.2
2023-03-22T09:27:33.004Z,95269.2
2023-03-22T09:28:36.352Z,95266.6
2023-03-22T09:29:39.104Z,95269.7
2023-03-22T09:30:43.122Z,95264
2023-03-22T09:31:45.727Z,95263.7
2023-03-22T09:32:47.956Z,95263.8
2023-03-22T09:33:50.204Z,95265.6
2023-03-22T09:34:52.219Z,95259.9
2023-03-22T09:35:54.687Z,95259.2
2023-03-22T09:38:02.291Z,95260.8
2023-03-22T09:39:04.560Z,95261.7
2023-03-22T09:40:07.162Z,95257.1
2023-03-22T09:41:09.689Z,95251.8
2023-03-22T09:42:11.928Z,95255.2
2023-03-22T09:43:13.892Z,95251.1
2023-03-22T09:44:16.127Z,95250.8
2023-03-22T09:45:18.397Z,95247.8
2023-03-22T09:46:21.126Z,95258.9
2023-03-22T09:48:29.423Z,95251.5
2023-03-22T09:50:37.026Z,95250.2
2023-03-22T09:51:39.595Z,95250.3
2023-03-22T09:52:41.824Z,95251.1
2023-03-22T09:53:44.327Z,95247.7
2023-03-22T09:54:46.864Z,95248.3
2023-03-22T09:55:49.051Z,95250.8
2023-03-22T09:56:51.272Z,95246.1
2023-03-22T09:57:53.855Z,95245.9
2023-03-22T09:58:56.097Z,95238
2023-03-22T09:59:58.329Z,95243
2023-03-22T10:01:01.581Z,95238.8
2023-03-22T10:02:05.613Z,95240.1
2023-03-22T10:03:08.522Z,95239.2
2023-03-22T10:04:11.334Z,95238.3
2023-03-22T10:05:13.676Z,95230.7
2023-03-22T10:06:16.193Z,95228.1
2023-03-22T10:07:18.172Z,95230.9
2023-03-22T10:08:20.393Z,95224.2
2023-03-22T10:09:22.913Z,95233.1
2023-03-22T10:10:25.515Z,95227.9
2023-03-22T10:11:28.059Z,95228.1
2023-03-22T10:12:30.299Z,95228.5
2023-03-22T10:13:31.970Z,95233
2023-03-22T10:14:34.254Z,95232.6
2023-03-22T10:15:36.641Z,95223.5
2023-03-22T10:16:39.212Z,95220.5
2023-03-22T10:17:41.827Z,95216.1
2023-03-22T10:18:44.426Z,95211.4
2023-03-22T10:19:46.400Z,95213.2
2023-03-22T10:20:48.644Z,95216.3
2023-03-22T10:21:51.189Z,95214.3
2023-03-22T10:22:54.733Z,95216.1
2023-03-22T10:23:57.045Z,95212.4
2023-03-22T10:24:59.580Z,95214.1
2023-03-22T10:26:02.092Z,95213.1
2023-03-22T10:27:04.057Z,95214.1
2023-03-22T10:28:06.587Z,95208.2
2023-03-22T10:29:08.540Z,95207
2023-03-22T10:30:10.877Z,95209
2023-03-22T10:31:13.661Z,95211.3
2023-03-22T10:32:16.341Z,95205.2
2023-03-22T10:33:18.614Z,95207.1
2023-03-22T10:34:21.174Z,95208.5
2023-03-22T10:35:23.939Z,95206.5
2023-03-22T10:36:26.663Z,95199.1
2023-03-22T10:37:28.783Z,95205.6
2023-03-22T10:38:31.450Z,95206.7
2023-03-22T10:39:34.028Z,95201.7
2023-03-22T10:40:36.731Z,95203.8
2023-03-22T10:41:39.262Z,95203.2
2023-03-22T10:42:41.508Z,95196.2
2023-03-22T10:43:43.789Z,95201.4
2023-03-22T10:44:46.075Z,95203
2023-03-22T10:45:48.633Z,95193.3
2023-03-22T10:46:50.899Z,95195.3
2023-03-22T10:47:53.650Z,95197.2
2023-03-22T10:48:56.024Z,95195.3
2023-03-22T10:49:59.272Z,95198.2
2023-03-22T10:51:02.321Z,95202.9
2023-03-22T10:52:04.585Z,95197.2
2023-03-22T10:53:06.845Z,95199
2023-03-22T10:54:08.774Z,95202.2
2023-03-22T10:55:11.327Z,95197
2023-03-22T10:56:13.803Z,95197.7
2023-03-22T10:57:16.066Z,95192.6
2023-03-22T10:58:18.582Z,95192.5
2023-03-22T10:59:21.085Z,95197
2023-03-22T11:00:23.848Z,95192.1
2023-03-22T11:01:27.346Z,95188.6
2023-03-22T11:02:30.837Z,95188.3
2023-03-22T11:03:33.861Z,95189.9
2023-03-22T11:04:36.467Z,95187.6
2023-03-22T11:05:40.240Z,95193
2023-03-22T11:06:43.323Z,95195.9
2023-03-22T11:07:45.856Z,95190
2023-03-22T11:08:48.122Z,95194
2023-03-22T11:09:50.380Z,95185
2023-03-22T11:10:53.031Z,95185
2023-03-22T11:11:55.348Z,95186.6
2023-03-22T11:12:57.862Z,95195.5
2023-03-22T11:14:00.609Z,95190
2023-03-22T11:15:02.580Z,95192.6
2023-03-22T11:16:04.983Z,95190.4
2023-03-22T11:17:07.603Z,95187.8
2023-03-22T11:18:09.581Z,95191.3
2023-03-22T11:19:12.127Z,95199.1
2023-03-22T11:20:14.411Z,95198.7
2023-03-22T11:21:17.027Z,95191.5
2023-03-22T11:22:19.528Z,95191.7
2023-03-22T11:23:22.062Z,95192.6
2023-03-22T11:24:24.605Z,95194.7
2023-03-22T11:25:27.136Z,95187.9
2023-03-22T11:26:29.710Z,95185.8
2023-03-22T11:27:31.686Z,95190.6
2023-03-22T11:28:33.907Z,95188.8
2023-03-22T11:29:36.293Z,95190.8
2023-03-22T11:30:39.291Z,95196
2023-03-22T11:31:42.431Z,95188.8
2023-03-22T11:32:45.112Z,95187.4
2023-03-22T11:33:47.135Z,95184
2023-03-22T11:34:49.653Z,95185.2
2023-03-22T11:35:52.240Z,95181.8
2023-03-22T11:36:54.873Z,95182.8
2023-03-22T11:37:57.121Z,95178.5
2023-03-22T11:38:59.334Z,95180.9
2023-03-22T11:40:01.924Z,95177.2
2023-03-22T11:41:04.206Z,95171.7
2023-03-22T11:42:06.175Z,95169.2
2023-03-22T11:43:08.657Z,95164.8
2023-03-22T11:44:11.048Z,95164.4
2023-03-22T11:45:13.300Z,95166.5
2023-03-22T11:46:16.017Z,95164.6
2023-03-22T11:47:18.314Z,95166
2023-03-22T11:48:20.868Z,95164.9
2023-03-22T11:49:23.352Z,95168.6
2023-03-22T11:50:25.868Z,95162.3
2023-03-22T11:51:28.459Z,95160.7
2023-03-22T11:52:30.706Z,95162.7
2023-03-22T11:53:33.259Z,95157
2023-03-22T11:54:35.865Z,95157.3
2023-03-22T11:55:38.744Z,95156.4
2023-03-22T11:56:41.741Z,95156.9
2023-03-22T11:57:43.771Z,95156.6
2023-03-22T11:58:46.336Z,95160.1
2023-03-22T11:59:48.606Z,95154.9
2023-03-22T12:00:51.117Z,95154.4
2023-03-22T12:01:53.956Z,95155.8
2023-03-22T12:02:56.997Z,95142.4
2023-03-22T12:04:00.064Z,95146
2023-03-22T12:05:02.881Z,95146.9
2023-03-22T12:06:05.534Z,95142.9
2023-03-22T12:07:08.306Z,95142.5
2023-03-22T12:08:10.900Z,95130.3
2023-03-22T12:09:13.237Z,95128.8
2023-03-22T12:10:15.883Z,95127.2
2023-03-22T12:11:18.277Z,95130.5
2023-03-22T12:12:20.835Z,95121.9
2023-03-22T12:13:23.190Z,95124.5
2023-03-22T12:14:25.787Z,95122.8
2023-03-22T12:15:27.815Z,95122.6
2023-03-22T12:16:30.632Z,95124.7
2023-03-22T12:17:33.396Z,95124.6
2023-03-22T12:18:36.003Z,95125.6
2023-03-22T12:19:38.619Z,95123
2023-03-22T12:20:42.693Z,95121.4
2023-03-22T12:21:45.471Z,95122.6
2023-03-22T12:22:48.125Z,95122.3
2023-03-22T12:23:50.708Z,95121.4
2023-03-22T12:24:53.226Z,95119.9
2023-03-22T12:25:55.764Z,95115.8
2023-03-22T12:26:58.278Z,95114
2023-03-22T12:28:00.777Z,95116.8
2023-03-22T12:29:03.289Z,95115.8
2023-03-22T12:30:05.527Z,95113.2
2023-03-22T12:31:08.387Z,95109.6
2023-03-22T12:32:10.944Z,95106.2
2023-03-22T12:33:13.801Z,95103.1
2023-03-22T12:34:16.465Z,95104.6
2023-03-22T12:36:24.039Z,95102.6
2023-03-22T12:37:26.650Z,95096.9
2023-03-22T12:38:29.332Z,95098.1
2023-03-22T12:39:31.876Z,95094
2023-03-22T12:40:34.125Z,95097
2023-03-22T12:41:36.765Z,95087.8
2023-03-22T12:43:43.739Z,95082.9
2023-03-22T12:45:50.975Z,95081.2
2023-03-22T12:46:53.234Z,95087.5
2023-03-22T12:47:56.455Z,95085.4
2023-03-22T12:48:59.250Z,95079.7
2023-03-22T12:50:01.689Z,95071.2
2023-03-22T12:51:04.245Z,95078.9
2023-03-22T12:52:06.281Z,95078.8
2023-03-22T12:53:08.832Z,95074.1